createdAt,value
2023-05-09T00:00:03.840Z,94.1970
2023-05-09T00:01:06.902Z,94.3231
2023-05-09T00:02:09.882Z,94.4349
2023-05-09T00:03:12.982Z,94.6061
2023-05-09T00:04:16.004Z,94.6805
2023-05-09T00:05:19.007Z,94.7655
2023-05-09T00:06:21.972Z,94.8447
2023-05-09T00:07:24.961Z,94.8795
2023-05-09T00:08:27.967Z,94.7425
2023-05-09T00:09:30.971Z,94.7566
2023-05-09T00:10:33.985Z,94.8027
2023-05-09T00:11:37.052Z,94.7370
2023-05-09T00:12:40.088Z,94.8114
2023-05-09T00:13:43.061Z,94.8070
2023-05-09T00:14:46.059Z,94.8078
2023-05-09T00:15:49.030Z,94.8908
2023-05-09T00:16:52.125Z,94.8819
2023-05-09T00:17:55.119Z,94.9226
2023-05-09T00:18:58.130Z,94.9629
2023-05-09T00:20:01.112Z,95.1063
2023-05-09T00:21:04.108Z,95.1557
2023-05-09T00:22:07.163Z,95.1167
2023-05-09T00:23:10.129Z,95.1233
2023-05-09T00:24:13.122Z,95.1708
2023-05-09T00:25:16.332Z,95.2265
2023-05-09T00:26:19.463Z,95.1892
2023-05-09T00:27:22.472Z,94.9420
2023-05-09T00:28:25.450Z,94.9144
2023-05-09T00:29:28.437Z,94.9260
2023-05-09T00:30:31.407Z,94.8736
2023-05-09T00:31:34.421Z,94.9762
2023-05-09T00:32:37.400Z,94.9978
2023-05-09T00:33:40.424Z,94.5806
2023-05-09T00:34:43.443Z,93.3083
2023-05-09T00:35:46.369Z,93.4515
2023-05-09T00:36:49.383Z,93.8123
2023-05-09T00:37:52.340Z,94.0225
2023-05-09T00:38:55.294Z,94.0053
2023-05-09T00:39:58.274Z,94.2581
2023-05-09T00:41:01.253Z,94.6691
2023-05-09T00:42:04.226Z,94.9583
2023-05-09T00:43:07.219Z,95.1255
2023-05-09T00:44:10.190Z,95.3822
2023-05-09T00:45:13.316Z,95.6990
2023-05-09T00:46:16.532Z,95.9544
2023-05-09T00:47:19.601Z,96.1595
2023-05-09T00:48:22.583Z,96.1037
2023-05-09T00:49:25.575Z,96.1113
2023-05-09T00:50:28.583Z,95.8619
2023-05-09T00:51:31.525Z,95.4578
2023-05-09T00:52:34.558Z,95.4311
2023-05-09T00:53:37.537Z,95.4045
2023-05-09T00:54:40.550Z,95.4980
2023-05-09T00:55:43.617Z,95.6606
2023-05-09T00:56:46.564Z,95.7811
2023-05-09T00:57:49.531Z,95.8758
2023-05-09T00:58:52.521Z,96.0143
2023-05-09T00:59:55.516Z,96.0695
2023-05-09T01:00:58.837Z,96.0648
2023-05-09T01:02:01.837Z,95.9748
2023-05-09T01:03:04.920Z,96.0203
2023-05-09T01:04:07.938Z,96.0918
2023-05-09T01:05:10.965Z,96.1212
2023-05-09T01:06:13.965Z,96.0931
2023-05-09T01:07:16.942Z,96.1281
2023-05-09T01:08:19.894Z,96.0853
2023-05-09T01:09:23.138Z,96.0865
2023-05-09T01:10:26.127Z,96.1437
2023-05-09T01:11:29.134Z,96.1348
2023-05-09T01:12:32.114Z,96.1572
2023-05-09T01:13:35.138Z,96.2389
2023-05-09T01:14:38.142Z,96.3275
2023-05-09T01:15:41.200Z,96.4210
2023-05-09T01:16:44.151Z,96.5206
2023-05-09T01:17:47.161Z,96.6105
2023-05-09T01:18:50.109Z,96.6793
2023-05-09T01:19:53.079Z,96.7636
2023-05-09T01:20:56.064Z,96.8128
2023-05-09T01:21:59.088Z,96.7653
2023-05-09T01:23:02.017Z,96.7968
2023-05-09T01:24:05.005Z,96.8306
2023-05-09T01:25:08.227Z,96.8283
2023-05-09T01:26:11.203Z,96.8140
2023-05-09T01:27:14.229Z,96.8249
2023-05-09T01:28:17.189Z,96.8956
2023-05-09T01:29:20.427Z,96.9449
2023-05-09T01:30:23.449Z,96.9958
2023-05-09T01:31:26.506Z,97.0248
2023-05-09T01:32:29.514Z,97.0715
2023-05-09T01:33:32.459Z,97.1302
2023-05-09T01:34:35.461Z,97.1473
2023-05-09T01:35:38.428Z,97.1082
2023-05-09T01:36:41.388Z,97.0775
2023-05-09T01:37:44.405Z,97.1213
2023-05-09T01:38:47.341Z,97.1687
2023-05-09T01:39:50.348Z,97.2008
2023-05-09T01:40:53.362Z,97.2010
2023-05-09T01:41:56.899Z,97.2188
2023-05-09T01:42:59.889Z,97.2536
2023-05-09T01:44:02.910Z,97.2893
2023-05-09T01:45:06.220Z,97.3393
2023-05-09T01:46:09.218Z,97.3870
2023-05-09T01:47:12.415Z,97.4649
2023-05-09T01:48:15.416Z,97.5056
2023-05-09T01:49:19.167Z,97.5616
2023-05-09T01:50:22.141Z,97.6132
2023-05-09T01:51:25.109Z,97.6562
2023-05-09T01:52:28.098Z,97.6974
2023-05-09T01:53:31.120Z,97.7211
2023-05-09T01:54:34.073Z,97.6851
2023-05-09T01:55:37.061Z,97.6687
2023-05-09T01:56:40.043Z,97.6555
2023-05-09T01:57:43.052Z,97.6192
2023-05-09T01:58:46.005Z,97.5817
2023-05-09T01:59:49.230Z,97.5818
2023-05-09T02:00:52.249Z,97.6076
2023-05-09T02:01:55.886Z,97.6519
2023-05-09T02:02:58.920Z,97.6801
2023-05-09T02:04:01.919Z,97.7290
2023-05-09T02:05:04.924Z,97.7876
2023-05-09T02:06:07.648Z,97.8300
2023-05-09T02:07:10.845Z,97.8963
2023-05-09T02:08:13.826Z,97.9272
2023-05-09T02:09:16.850Z,97.9661
2023-05-09T02:11:20.065Z,98.0099
2023-05-09T02:12:23.048Z,98.0807
2023-05-09T02:13:26.078Z,98.0965
2023-05-09T02:14:29.124Z,98.1274
2023-05-09T02:15:32.113Z,98.1449
2023-05-09T02:16:35.156Z,98.1645
2023-05-09T02:17:38.159Z,98.1638
2023-05-09T02:18:41.100Z,98.1084
2023-05-09T02:19:42.415Z,98.0390
2023-05-09T02:20:45.483Z,97.9696
2023-05-09T02:21:48.424Z,97.9793
2023-05-09T02:22:51.662Z,98.0159
2023-05-09T02:23:54.638Z,98.0711
2023-05-09T02:24:57.983Z,98.1076
2023-05-09T02:26:00.931Z,98.1354
2023-05-09T02:27:04.292Z,98.1589
2023-05-09T02:28:07.297Z,98.1980
2023-05-09T02:29:10.300Z,98.2421
2023-05-09T02:30:13.496Z,98.2647
2023-05-09T02:31:16.508Z,98.2938
2023-05-09T02:32:19.752Z,98.3153
2023-05-09T02:33:22.724Z,98.3476
2023-05-09T02:34:25.693Z,98.3922
2023-05-09T02:35:28.694Z,98.3752
2023-05-09T02:36:31.684Z,98.3238
2023-05-09T02:37:34.938Z,98.2896
2023-05-09T02:38:37.925Z,98.2796
2023-05-09T02:39:41.028Z,98.2720
2023-05-09T02:40:44.061Z,98.2782
2023-05-09T02:41:47.013Z,98.3020
2023-05-09T02:42:49.997Z,98.3308
2023-05-09T02:43:53.023Z,98.3660
2023-05-09T02:44:55.940Z,98.3875
2023-05-09T02:45:58.992Z,98.4171
2023-05-09T02:47:01.919Z,98.4562
2023-05-09T02:48:07.640Z,98.5005
2023-05-09T02:49:07.874Z,98.5409
2023-05-09T02:50:11.201Z,98.5943
2023-05-09T02:51:14.206Z,98.6355
2023-05-09T02:52:17.193Z,98.6542
2023-05-09T02:53:20.156Z,98.6367
2023-05-09T02:54:23.135Z,98.6676
2023-05-09T02:55:26.152Z,98.7154
2023-05-09T02:56:29.168Z,98.7460
2023-05-09T02:57:32.124Z,98.7526
2023-05-09T02:58:35.102Z,98.7717
2023-05-09T02:59:38.061Z,98.7743
2023-05-09T03:00:41.067Z,98.7454
2023-05-09T03:01:44.107Z,98.7306
2023-05-09T03:02:47.164Z,98.7071
2023-05-09T03:03:50.180Z,98.6949
2023-05-09T03:04:53.127Z,98.7065
2023-05-09T03:05:56.105Z,98.7232
2023-05-09T03:06:59.112Z,98.7483
2023-05-09T03:08:02.097Z,98.7696
2023-05-09T03:09:05.111Z,98.8077
2023-05-09T03:10:08.075Z,98.8396
2023-05-09T03:11:11.069Z,98.8774
2023-05-09T03:12:14.094Z,98.8954
2023-05-09T03:13:17.104Z,98.9182
2023-05-09T03:14:20.082Z,98.9058
2023-05-09T03:15:23.082Z,98.9085
2023-05-09T03:16:26.055Z,98.9144
2023-05-09T03:17:26.635Z,98.9341
2023-05-09T03:18:29.613Z,98.9414
2023-05-09T03:19:32.617Z,98.9598
2023-05-09T03:20:35.958Z,98.9825
2023-05-09T03:21:38.934Z,98.9957
2023-05-09T03:22:41.915Z,99.0155
2023-05-09T03:23:44.942Z,99.0395
2023-05-09T03:24:48.002Z,99.0674
2023-05-09T03:25:51.318Z,99.1085
2023-05-09T03:26:54.315Z,99.1314
2023-05-09T03:27:57.375Z,99.1482
2023-05-09T03:29:00.318Z,99.1793
2023-05-09T03:30:03.341Z,99.2033
2023-05-09T03:31:06.462Z,99.2119
2023-05-09T03:32:09.481Z,99.2301
2023-05-09T03:33:13.004Z,99.2458
2023-05-09T03:34:16.006Z,99.2650
2023-05-09T03:35:19.000Z,99.2704
2023-05-09T03:36:21.974Z,99.2763
2023-05-09T03:37:26.901Z,99.2867
2023-05-09T03:38:26.778Z,99.2838
2023-05-09T03:39:29.770Z,99.2889
2023-05-09T03:40:32.986Z,99.2846
2023-05-09T03:41:35.983Z,99.2865
2023-05-09T03:42:39.213Z,99.2793
2023-05-09T03:43:42.274Z,99.2809
2023-05-09T03:44:45.245Z,99.2792
2023-05-09T03:45:48.292Z,99.2802
2023-05-09T03:46:51.357Z,99.2838
2023-05-09T03:47:54.087Z,99.2750
2023-05-09T03:48:57.094Z,99.2825
2023-05-09T03:50:00.114Z,99.2832
2023-05-09T03:51:03.112Z,99.2866
2023-05-09T03:52:06.154Z,99.2869
2023-05-09T03:53:09.175Z,99.2948
2023-05-09T03:54:12.191Z,99.2999
2023-05-09T03:55:15.348Z,99.2970
2023-05-09T03:56:18.759Z,99.2989
2023-05-09T03:57:21.778Z,99.3010
2023-05-09T03:58:24.794Z,99.3074
2023-05-09T03:59:27.845Z,99.2941
2023-05-09T04:00:30.804Z,99.2557
2023-05-09T04:01:33.827Z,99.2213
2023-05-09T04:02:36.915Z,99.2098
2023-05-09T04:03:40.169Z,99.1747
2023-05-09T04:04:43.170Z,99.1614
2023-05-09T04:05:46.181Z,99.1676
2023-05-09T04:06:49.194Z,99.1633
2023-05-09T04:07:52.206Z,99.1794
2023-05-09T04:08:55.205Z,99.1812
2023-05-09T04:09:58.214Z,99.1797
2023-05-09T04:11:01.474Z,99.1904
2023-05-09T04:12:04.499Z,99.1862
2023-05-09T04:13:07.592Z,99.1869
2023-05-09T04:14:10.567Z,99.1852
2023-05-09T04:15:13.954Z,99.1888
2023-05-09T04:16:17.066Z,99.1785
2023-05-09T04:17:20.046Z,99.1539
2023-05-09T04:18:23.062Z,99.1434
2023-05-09T04:19:26.114Z,99.1361
2023-05-09T04:20:29.122Z,99.1296
2023-05-09T04:21:32.152Z,99.1086
2023-05-09T04:22:35.174Z,99.0912
2023-05-09T04:23:36.161Z,99.0686
2023-05-09T04:24:39.160Z,99.0479
2023-05-09T04:25:42.420Z,99.0346
2023-05-09T04:26:45.458Z,99.0046
2023-05-09T04:27:48.466Z,98.9546
2023-05-09T04:28:51.499Z,98.8887
2023-05-09T04:29:54.494Z,98.8607
2023-05-09T04:30:57.740Z,98.8144
2023-05-09T04:32:00.845Z,98.7637
2023-05-09T04:33:03.870Z,98.7096
2023-05-09T04:34:06.886Z,98.6644
2023-05-09T04:35:09.888Z,98.6102
2023-05-09T04:36:12.930Z,98.5420
2023-05-09T04:37:15.951Z,98.4215
2023-05-09T04:38:18.976Z,98.3246
2023-05-09T04:39:21.963Z,98.2036
2023-05-09T04:40:26.857Z,98.0836
2023-05-09T04:41:26.505Z,97.9858
2023-05-09T04:42:29.540Z,97.9285
2023-05-09T04:43:32.607Z,97.8373
2023-05-09T04:44:35.606Z,97.7551
2023-05-09T04:45:36.748Z,97.6733
2023-05-09T04:46:39.855Z,97.6157
2023-05-09T04:47:42.874Z,97.5638
2023-05-09T04:48:45.879Z,97.5061
2023-05-09T04:49:48.884Z,97.4672
2023-05-09T04:50:51.955Z,97.3844
2023-05-09T04:51:54.982Z,97.2955
2023-05-09T04:52:58.035Z,97.2617
2023-05-09T04:54:01.092Z,97.1821
2023-05-09T04:55:04.106Z,97.1196
2023-05-09T04:56:07.150Z,97.1133
2023-05-09T04:57:17.244Z,97.2283
2023-05-09T04:58:11.701Z,97.2157
2023-05-09T04:59:14.734Z,97.1580
2023-05-09T05:00:17.760Z,97.0713
2023-05-09T05:01:20.781Z,96.9361
2023-05-09T05:02:23.825Z,96.8415
2023-05-09T05:03:26.871Z,96.7903
2023-05-09T05:04:29.893Z,96.7980
2023-05-09T05:06:35.988Z,96.8663
2023-05-09T05:07:39.028Z,96.7480
2023-05-09T05:08:42.066Z,96.6040
2023-05-09T05:09:45.079Z,96.4722
2023-05-09T05:10:48.119Z,96.2661
2023-05-09T05:12:00.829Z,96.0808
2023-05-09T05:12:52.726Z,96.0116
2023-05-09T05:13:55.749Z,95.9757
2023-05-09T05:14:58.796Z,96.0802
2023-05-09T05:16:01.849Z,96.3729
2023-05-09T05:17:04.859Z,96.3525
2023-05-09T05:18:08.029Z,96.1000
2023-05-09T05:19:11.021Z,95.8037
2023-05-09T05:20:14.027Z,95.8013
2023-05-09T05:21:17.158Z,95.8580
2023-05-09T05:22:20.118Z,95.7952
2023-05-09T05:23:23.134Z,95.7035
2023-05-09T05:24:26.141Z,95.5377
2023-05-09T05:25:29.163Z,95.3655
2023-05-09T05:26:32.405Z,95.2056
2023-05-09T05:27:35.450Z,94.9747
2023-05-09T05:28:38.477Z,94.7133
2023-05-09T05:29:41.491Z,94.4857
2023-05-09T05:30:44.512Z,94.4842
2023-05-09T05:31:47.599Z,94.2777
2023-05-09T05:33:51.137Z,94.2440
2023-05-09T05:34:54.080Z,94.0133
2023-05-09T05:35:57.122Z,93.7517
2023-05-09T05:37:00.139Z,93.5326
2023-05-09T05:38:03.186Z,93.4637
2023-05-09T05:39:06.207Z,93.4091
2023-05-09T05:40:09.208Z,93.5988
2023-05-09T05:41:12.257Z,93.5558
2023-05-09T05:42:15.278Z,93.9162
2023-05-09T05:43:18.301Z,93.8081
2023-05-09T05:44:21.300Z,93.8824
2023-05-09T05:45:24.322Z,93.7307
2023-05-09T05:46:27.804Z,93.1977
2023-05-09T05:47:30.848Z,93.2731
2023-05-09T05:48:34.459Z,93.6882
2023-05-09T05:49:37.503Z,93.8067
2023-05-09T05:50:48.128Z,93.3306
2023-05-09T05:51:43.792Z,93.7178
2023-05-09T05:52:46.822Z,93.3810
2023-05-09T05:53:50.099Z,93.4132
2023-05-09T05:54:53.162Z,94.3688
2023-05-09T05:55:56.402Z,94.9766
2023-05-09T05:56:59.451Z,95.1808
2023-05-09T05:58:02.433Z,94.8164
2023-05-09T05:59:05.444Z,94.9073
2023-05-09T06:00:08.628Z,94.5057
2023-05-09T06:01:12.469Z,93.6398
2023-05-09T06:02:15.615Z,93.4616
2023-05-09T06:03:18.754Z,93.4641
2023-05-09T06:04:21.980Z,93.0036
2023-05-09T06:05:25.164Z,92.3007
2023-05-09T06:06:28.430Z,91.8525
2023-05-09T06:07:31.417Z,91.6180
2023-05-09T06:08:34.539Z,91.4000
2023-05-09T06:09:37.574Z,91.5206
2023-05-09T06:10:40.639Z,91.1902
2023-05-09T06:11:43.713Z,91.4004
2023-05-09T06:12:46.770Z,91.7735
2023-05-09T06:13:49.981Z,92.2835
2023-05-09T06:14:53.048Z,92.6523
2023-05-09T06:15:57.741Z,91.7100
2023-05-09T06:16:57.661Z,91.0518
2023-05-09T06:18:00.710Z,91.3176
2023-05-09T06:19:03.756Z,91.8014
2023-05-09T06:20:06.758Z,91.2224
2023-05-09T06:21:09.890Z,92.5426
2023-05-09T06:22:12.879Z,93.2274
2023-05-09T06:23:15.904Z,93.5695
2023-05-09T06:24:31.867Z,93.7881
2023-05-09T06:25:20.501Z,93.6329
2023-05-09T06:26:23.518Z,93.2925
2023-05-09T06:27:26.559Z,93.7928
2023-05-09T06:28:29.551Z,92.6068
2023-05-09T06:29:31.901Z,92.0887
2023-05-09T06:30:34.913Z,92.4152
2023-05-09T06:31:37.944Z,91.5247
2023-05-09T06:32:41.045Z,90.8384
2023-05-09T06:33:44.041Z,90.2900
2023-05-09T06:34:47.055Z,89.1710
2023-05-09T06:35:50.070Z,88.2815
2023-05-09T06:36:53.153Z,88.1275
2023-05-09T06:37:56.152Z,87.8697
2023-05-09T06:38:59.213Z,84.1257
2023-05-09T06:40:02.246Z,85.3471
2023-05-09T06:41:05.455Z,85.0441
2023-05-09T06:42:08.457Z,86.2631
2023-05-09T06:43:11.526Z,84.8906
2023-05-09T06:44:14.573Z,86.4301
2023-05-09T06:45:17.853Z,87.9439
2023-05-09T06:46:21.183Z,85.9203
2023-05-09T06:47:24.379Z,84.4634
2023-05-09T06:48:27.368Z,82.0315
2023-05-09T06:49:30.392Z,85.2476
2023-05-09T06:50:33.388Z,84.5317
2023-05-09T06:51:36.267Z,84.7265
2023-05-09T06:52:39.327Z,85.2384
2023-05-09T06:53:42.325Z,84.9716
2023-05-09T06:54:45.360Z,82.7359
2023-05-09T06:55:48.390Z,82.3616
2023-05-09T06:56:51.416Z,82.5641
2023-05-09T06:57:54.443Z,81.8219
2023-05-09T06:58:57.457Z,83.2355
2023-05-09T07:00:00.480Z,82.2826
2023-05-09T07:01:03.493Z,80.6543
2023-05-09T07:02:06.595Z,79.3851
2023-05-09T07:03:09.625Z,79.6867
2023-05-09T07:04:12.628Z,81.4154
2023-05-09T07:05:15.849Z,80.4275
2023-05-09T07:06:19.097Z,78.7125
2023-05-09T07:07:22.141Z,76.5457
2023-05-09T07:08:25.181Z,76.6801
2023-05-09T07:09:28.148Z,75.0707
2023-05-09T07:10:31.180Z,73.1750
2023-05-09T07:11:34.187Z,70.2560
2023-05-09T07:13:39.554Z,68.6858
2023-05-09T07:14:42.572Z,72.3180
2023-05-09T07:15:45.722Z,72.4182
2023-05-09T07:16:48.775Z,72.4647
2023-05-09T07:17:51.786Z,71.4190
2023-05-09T07:18:54.769Z,75.3024
2023-05-09T07:19:57.810Z,72.1101
2023-05-09T07:21:00.827Z,75.9767
2023-05-09T07:22:04.141Z,78.8228
2023-05-09T07:23:07.153Z,76.0476
2023-05-09T07:24:10.256Z,74.1120
2023-05-09T07:25:13.510Z,73.7055
2023-05-09T07:26:16.617Z,71.4078
2023-05-09T07:27:19.657Z,72.3454
2023-05-09T07:28:22.691Z,69.3029
2023-05-09T07:29:25.766Z,70.5134
2023-05-09T07:30:28.750Z,67.5818
2023-05-09T07:31:31.771Z,66.7762
2023-05-09T07:32:34.772Z,68.1267
2023-05-09T07:33:37.789Z,68.5288
2023-05-09T07:34:40.786Z,63.8776
2023-05-09T07:35:43.985Z,60.9652
2023-05-09T07:36:47.000Z,61.2397
2023-05-09T07:37:50.200Z,62.0070
2023-05-09T07:38:53.278Z,63.7839
2023-05-09T07:39:56.058Z,67.6685
2023-05-09T07:40:59.242Z,65.6457
2023-05-09T07:42:02.258Z,66.7578
2023-05-09T07:43:05.313Z,65.4310
2023-05-09T07:44:08.315Z,67.8952
2023-05-09T07:45:11.392Z,70.7809
2023-05-09T07:46:14.715Z,70.0644
2023-05-09T07:47:17.733Z,70.3903
2023-05-09T07:48:20.774Z,70.6346
2023-05-09T07:49:23.797Z,70.3912
2023-05-09T07:50:26.471Z,70.6680
2023-05-09T07:51:29.491Z,70.3058
2023-05-09T07:52:32.564Z,68.0280
2023-05-09T07:53:35.543Z,69.2072
2023-05-09T07:54:38.560Z,68.2276
2023-05-09T07:55:41.648Z,68.3154
2023-05-09T07:56:44.629Z,66.9676
2023-05-09T07:57:47.661Z,67.2037
2023-05-09T07:58:50.717Z,69.1272
2023-05-09T07:59:53.743Z,66.4204
2023-05-09T08:00:56.785Z,65.5024
2023-05-09T08:01:59.842Z,66.0737
2023-05-09T08:03:03.016Z,66.4972
2023-05-09T08:04:06.531Z,65.8060
2023-05-09T08:05:09.570Z,65.4735
2023-05-09T08:06:12.568Z,64.5585
2023-05-09T08:07:15.591Z,64.0047
2023-05-09T08:08:18.597Z,63.1620
2023-05-09T08:09:21.846Z,63.4015
2023-05-09T08:10:24.885Z,65.9717
2023-05-09T08:11:27.927Z,64.0288
2023-05-09T08:12:30.888Z,65.7380
2023-05-09T08:13:33.934Z,66.3242
2023-05-09T08:14:37.003Z,66.7543
2023-05-09T08:15:39.747Z,66.6156
2023-05-09T08:16:42.738Z,69.2248
2023-05-09T08:17:45.853Z,71.8949
2023-05-09T08:18:48.866Z,69.7070
2023-05-09T08:19:51.883Z,68.8358
2023-05-09T08:20:54.894Z,68.9895
2023-05-09T08:21:57.949Z,69.7443
2023-05-09T08:23:00.985Z,68.0251
2023-05-09T08:24:03.985Z,67.3800
2023-05-09T08:25:07.023Z,68.3345
2023-05-09T08:26:10.036Z,68.6277
2023-05-09T08:27:10.307Z,67.9975
2023-05-09T08:28:13.291Z,68.4340
2023-05-09T08:29:16.311Z,70.5215
2023-05-09T08:30:19.331Z,70.7353
2023-05-09T08:31:22.379Z,72.4696
2023-05-09T08:32:25.424Z,71.5618
2023-05-09T08:33:28.456Z,70.2815
2023-05-09T08:34:29.619Z,71.5935
2023-05-09T08:35:32.602Z,72.5956
2023-05-09T08:37:35.764Z,72.8581
2023-05-09T08:38:38.999Z,72.9325
2023-05-09T08:39:42.025Z,71.8202
2023-05-09T08:40:45.127Z,71.8800
2023-05-09T08:41:48.236Z,70.3578
2023-05-09T08:42:51.451Z,69.5087
2023-05-09T08:43:54.441Z,68.8182
2023-05-09T08:44:57.477Z,69.2904
2023-05-09T08:46:00.676Z,70.7345
2023-05-09T08:47:03.806Z,68.5847
2023-05-09T08:48:07.111Z,68.5545
2023-05-09T08:49:10.512Z,68.5584
2023-05-09T08:50:13.733Z,69.5014
2023-05-09T08:51:17.098Z,70.7078
2023-05-09T08:52:20.121Z,71.4300
2023-05-09T08:53:23.222Z,70.7286
2023-05-09T08:54:26.224Z,70.2647
2023-05-09T08:55:29.259Z,69.0951
2023-05-09T08:56:32.307Z,70.2562
2023-05-09T08:57:35.318Z,71.5215
2023-05-09T08:58:38.370Z,72.5988
2023-05-09T08:59:41.377Z,73.3196
2023-05-09T09:00:44.425Z,72.8687
2023-05-09T09:01:47.523Z,72.1412
2023-05-09T09:02:50.553Z,73.8211
2023-05-09T09:03:53.589Z,73.6888
2023-05-09T09:04:56.705Z,73.4973
2023-05-09T09:05:59.788Z,73.4664
2023-05-09T09:07:02.824Z,73.2862
2023-05-09T09:08:05.853Z,73.3153
2023-05-09T09:09:08.892Z,72.8559
2023-05-09T09:10:11.959Z,69.6512
2023-05-09T09:11:14.951Z,64.4171
2023-05-09T09:12:17.952Z,66.4443
2023-05-09T09:13:21.003Z,68.8454
2023-05-09T09:14:24.077Z,71.3591
2023-05-09T09:15:27.072Z,71.3966
2023-05-09T09:16:30.153Z,70.1858
2023-05-09T09:17:33.232Z,70.6974
2023-05-09T09:18:36.288Z,71.9338
2023-05-09T09:19:39.326Z,72.3020
2023-05-09T09:20:42.394Z,72.0957
2023-05-09T09:21:45.403Z,71.7624
2023-05-09T09:22:48.523Z,70.1651
2023-05-09T09:23:51.533Z,69.7635
2023-05-09T09:24:54.620Z,68.0673
2023-05-09T09:25:59.607Z,66.6851
2023-05-09T09:27:59.449Z,66.0131
2023-05-09T09:29:02.448Z,66.8181
2023-05-09T09:30:05.526Z,67.2192
2023-05-09T09:31:08.514Z,69.0426
2023-05-09T09:32:11.570Z,67.7705
2023-05-09T09:33:14.724Z,67.5206
2023-05-09T09:34:17.698Z,64.4408
2023-05-09T09:35:20.713Z,62.1053
2023-05-09T09:36:23.740Z,61.7492
2023-05-09T09:37:24.005Z,67.0044
2023-05-09T09:38:30.879Z,67.5645
2023-05-09T09:39:34.015Z,64.8640
2023-05-09T09:40:37.016Z,66.7307
2023-05-09T09:41:40.206Z,69.4886
2023-05-09T09:42:43.238Z,66.7430
2023-05-09T09:43:46.257Z,59.6506
2023-05-09T09:44:49.265Z,55.2992
2023-05-09T09:45:52.431Z,55.9635
2023-05-09T09:46:55.490Z,54.3849
2023-05-09T09:47:58.601Z,54.1137
2023-05-09T09:49:01.865Z,52.5281
2023-05-09T09:50:04.935Z,49.6532
2023-05-09T09:51:08.135Z,50.2900
2023-05-09T09:52:11.182Z,53.9724
2023-05-09T09:53:14.194Z,50.6234
2023-05-09T09:54:18.326Z,50.2426
2023-05-09T09:55:17.669Z,50.6302
2023-05-09T09:56:20.621Z,52.1840
2023-05-09T09:57:23.662Z,54.2304
2023-05-09T09:58:26.694Z,55.7414
2023-05-09T09:59:29.981Z,55.3947
2023-05-09T10:00:32.989Z,57.3797
2023-05-09T10:01:36.116Z,57.2864
2023-05-09T10:02:39.393Z,55.7641
2023-05-09T10:03:42.443Z,55.5293
2023-05-09T10:04:43.573Z,54.6093
2023-05-09T10:05:46.585Z,54.6689
2023-05-09T10:06:49.610Z,54.2867
2023-05-09T10:07:52.674Z,55.1992
2023-05-09T10:08:55.678Z,53.7951
2023-05-09T10:09:57.141Z,55.4413
2023-05-09T10:11:00.159Z,54.1805
2023-05-09T10:12:03.627Z,55.7154
2023-05-09T10:13:06.693Z,55.1439
2023-05-09T10:14:09.748Z,53.5602
2023-05-09T10:15:12.749Z,53.2613
2023-05-09T10:16:35.646Z,54.4264
2023-05-09T10:18:25.759Z,51.5864
2023-05-09T10:19:28.838Z,53.3409
2023-05-09T10:20:31.906Z,54.8257
2023-05-09T10:21:36.160Z,55.0789
2023-05-09T10:22:36.343Z,52.6704
2023-05-09T10:23:39.065Z,52.6238
2023-05-09T10:24:42.116Z,53.6063
2023-05-09T10:25:45.166Z,51.4446
2023-05-09T10:26:48.519Z,50.1093
2023-05-09T10:27:51.603Z,52.5159
2023-05-09T10:28:54.632Z,51.5762
2023-05-09T10:29:57.933Z,54.5777
2023-05-09T10:31:01.019Z,54.7256
2023-05-09T10:32:04.056Z,55.6999
2023-05-09T10:33:07.159Z,52.2714
2023-05-09T10:34:10.421Z,56.4368
2023-05-09T10:35:13.657Z,58.1169
2023-05-09T10:36:16.869Z,61.3135
2023-05-09T10:37:20.350Z,60.9433
2023-05-09T10:38:23.414Z,60.4258
2023-05-09T10:39:26.728Z,60.8653
2023-05-09T10:40:29.782Z,58.5413
2023-05-09T10:41:32.832Z,55.7698
2023-05-09T10:42:36.129Z,58.4747
2023-05-09T10:43:38.913Z,58.0350
2023-05-09T10:44:41.959Z,55.6596
2023-05-09T10:45:45.031Z,56.4524
2023-05-09T10:46:48.161Z,55.5624
2023-05-09T10:47:51.336Z,57.2010
2023-05-09T10:48:54.439Z,57.4982
2023-05-09T10:50:02.618Z,58.0460
2023-05-09T10:51:05.613Z,56.4961
2023-05-09T10:52:08.695Z,54.5969
2023-05-09T10:53:11.765Z,55.4557
2023-05-09T10:54:14.820Z,52.1447
2023-05-09T10:55:17.908Z,52.5879
2023-05-09T10:56:20.987Z,52.1838
2023-05-09T10:57:24.330Z,52.0841
2023-05-09T10:58:27.404Z,54.1130
2023-05-09T10:59:30.464Z,56.5323
2023-05-09T11:00:33.538Z,53.2376
2023-05-09T11:02:38.292Z,55.7072
2023-05-09T11:03:41.626Z,56.1387
2023-05-09T11:04:44.774Z,56.8189
2023-05-09T11:05:47.838Z,56.6169
2023-05-09T11:06:50.918Z,55.5011
2023-05-09T11:07:54.108Z,56.3476
2023-05-09T11:08:57.192Z,56.8399
2023-05-09T11:10:00.282Z,56.0493
2023-05-09T11:11:03.368Z,56.1577
2023-05-09T11:13:09.179Z,54.4429
2023-05-09T11:14:12.221Z,57.5622
2023-05-09T11:15:15.446Z,55.1705
2023-05-09T11:16:18.667Z,53.0251
2023-05-09T11:17:22.072Z,54.3704
2023-05-09T11:18:25.242Z,53.2638
2023-05-09T11:19:28.290Z,50.7184
2023-05-09T11:20:31.394Z,51.0282
2023-05-09T11:21:34.654Z,54.8692
2023-05-09T11:22:37.726Z,54.9671
2023-05-09T11:23:40.805Z,54.8151
2023-05-09T11:24:43.864Z,56.3767
2023-05-09T11:25:46.959Z,56.0338
2023-05-09T11:26:49.984Z,55.4367
2023-05-09T11:27:53.100Z,57.3506
2023-05-09T11:28:56.317Z,57.1820
2023-05-09T11:29:59.370Z,57.2239
2023-05-09T11:31:02.448Z,57.2533
2023-05-09T11:32:05.507Z,56.4297
2023-05-09T11:33:09.144Z,56.1482
2023-05-09T11:34:12.405Z,55.9218
2023-05-09T11:35:15.984Z,56.9749
2023-05-09T11:36:15.625Z,55.7616
2023-05-09T11:37:18.701Z,56.6781
2023-05-09T11:38:29.278Z,54.4831
2023-05-09T11:39:32.368Z,54.1691
2023-05-09T11:40:35.461Z,54.8938
2023-05-09T11:41:38.578Z,55.7733
2023-05-09T11:42:41.594Z,55.3403
2023-05-09T11:43:44.676Z,55.6119
2023-05-09T11:44:47.950Z,55.2150
2023-05-09T11:45:51.062Z,54.2026
2023-05-09T11:46:54.167Z,58.4805
2023-05-09T11:47:57.298Z,55.0576
2023-05-09T11:49:07.784Z,53.5248
2023-05-09T11:50:04.069Z,54.3710
2023-05-09T11:51:07.092Z,55.4053
2023-05-09T11:52:10.237Z,55.5238
2023-05-09T11:53:13.420Z,56.2011
2023-05-09T11:54:16.451Z,53.4203
2023-05-09T11:55:19.748Z,54.6707
2023-05-09T11:56:22.846Z,53.9756
2023-05-09T11:57:25.890Z,51.0852
2023-05-09T11:58:28.999Z,48.8579
2023-05-09T11:59:32.083Z,51.3806
2023-05-09T12:00:35.146Z,49.9839
2023-05-09T12:01:38.216Z,47.8205
2023-05-09T12:02:41.396Z,47.8109
2023-05-09T12:03:44.534Z,48.2703
2023-05-09T12:04:47.648Z,50.6783
2023-05-09T12:05:50.938Z,53.2300
2023-05-09T12:06:54.021Z,51.3271
2023-05-09T12:07:57.090Z,51.4396
2023-05-09T12:09:00.181Z,51.6355
2023-05-09T12:10:03.213Z,52.0827
2023-05-09T12:11:06.278Z,52.5654
2023-05-09T12:12:07.502Z,52.2924
2023-05-09T12:13:10.628Z,51.2964
2023-05-09T12:14:13.752Z,50.4611
2023-05-09T12:15:17.112Z,52.4613
2023-05-09T12:16:17.032Z,50.4191
2023-05-09T12:17:19.854Z,47.9662
2023-05-09T12:18:23.273Z,47.1998
2023-05-09T12:19:26.344Z,49.7979
2023-05-09T12:20:29.388Z,51.1929
2023-05-09T12:21:32.446Z,51.4663
2023-05-09T12:22:35.638Z,51.8196
2023-05-09T12:23:38.699Z,49.0498
2023-05-09T12:24:41.805Z,53.1418
2023-05-09T12:25:44.953Z,55.0665
2023-05-09T12:26:48.000Z,53.4878
2023-05-09T12:27:51.089Z,55.3821
2023-05-09T12:28:54.140Z,55.0213
2023-05-09T12:29:57.202Z,52.8256
2023-05-09T12:31:00.279Z,52.8783
2023-05-09T12:33:03.997Z,53.8391
2023-05-09T12:34:07.049Z,52.3480
2023-05-09T12:35:10.127Z,51.9588
2023-05-09T12:36:13.207Z,52.6007
2023-05-09T12:37:14.392Z,54.2876
2023-05-09T12:38:17.665Z,52.4348
2023-05-09T12:39:20.704Z,54.4515
2023-05-09T12:40:23.811Z,54.4115
2023-05-09T12:41:36.907Z,55.4482
2023-05-09T12:42:28.424Z,54.6230
2023-05-09T12:43:31.488Z,54.8236
2023-05-09T12:44:34.576Z,55.6820
2023-05-09T12:45:37.665Z,53.6421
2023-05-09T12:46:40.762Z,54.4812
2023-05-09T12:47:43.826Z,52.5084
2023-05-09T12:48:46.867Z,50.4444
2023-05-09T12:49:49.947Z,51.2671
2023-05-09T12:50:52.719Z,54.3940
2023-05-09T12:51:55.760Z,50.4596